Time;durP1;ratioP1;P1;durP2;ratioP2;P2;SDS_P1;SDS_P2;PMS_P1;PMS_P2;Temp;Humidity;BMP_temperature;BMP_pressure;BME280_temperature;BME280_humidity;BME280_pressure;Samples;Min_cycle;Max_cycle;Signal;HPM_P1;HPM_P2
2022/01/07 00:01:11;;;;;;;10.77;5.07;;;;;;;;;;5013508;28;20194;-61
2022/01/07 00:03:37;;;;;;;13.15;4.68;;;;;;;;;;5013721;28;20220;-60
2022/01/07 00:06:03;;;;;;;10.70;4.47;;;;;;;;;;5013742;28;20270;-59
2022/01/07 00:08:29;;;;;;;12.10;4.63;;;;;;;;;;5013376;28;20563;-59
2022/01/07 00:10:55;;;;;;;12.32;5.10;;;;;;;;;;5013291;28;20162;-60
2022/01/07 00:13:22;;;;;;;11.55;5.05;;;;;;;;;;5013248;28;20200;-60
2022/01/07 00:15:48;;;;;;;13.10;4.80;;;;;;;;;;5013469;28;20174;-60
2022/01/07 00:18:14;;;;;;;13.32;5.13;;;;;;;;;;5013528;28;20224;-61
2022/01/07 00:20:40;;;;;;;18.50;5.45;;;;;;;;;;5013159;28;20182;-60
2022/01/07 00:23:06;;;;;;;16.25;5.90;;;;;;;;;;5013197;28;20174;-61
2022/01/07 00:25:32;;;;;;;12.45;5.22;;;;;;;;;;5013212;28;20170;-61
2022/01/07 00:27:58;;;;;;;11.45;4.85;;;;;;;;;;5013205;28;20174;-60
2022/01/07 00:30:24;;;;;;;9.98;4.60;;;;;;;;;;5013486;28;20170;-59
2022/01/07 00:32:52;;;;;;;9.20;4.90;;;;;;;;;;5013418;28;20189;-60
2022/01/07 00:35:19;;;;;;;11.82;5.20;;;;;;;;;;5014945;28;20162;-60
2022/01/07 00:37:45;;;;;;;15.88;5.40;;;;;;;;;;5017058;28;20197;-60
2022/01/07 00:40:12;;;;;;;11.07;5.10;;;;;;;;;;5016657;28;20490;-60
2022/01/07 00:42:38;;;;;;;15.45;5.47;;;;;;;;;;5016987;28;20162;-60
2022/01/07 00:45:05;;;;;;;12.85;5.10;;;;;;;;;;5016865;28;20162;-60
2022/01/07 00:47:31;;;;;;;14.95;5.22;;;;;;;;;;5016939;28;20602;-60
2022/01/07 00:49:58;;;;;;;14.75;5.47;;;;;;;;;;5016856;28;20221;-60
2022/01/07 00:52:24;;;;;;;18.77;6.38;;;;;;;;;;5016612;28;20166;-61
2022/01/07 00:54:50;;;;;;;14.50;5.80;;;;;;;;;;5016406;28;20289;-61
2022/01/07 00:57:16;;;;;;;12.90;5.43;;;;;;;;;;5016437;28;20270;-60
2022/01/07 00:59:44;;;;;;;12.23;5.30;;;;;;;;;;5016288;28;20256;-60
2022/01/07 01:02:10;;;;;;;22.17;6.78;;;;;;;;;;5016485;28;20672;-61
2022/01/07 01:04:37;;;;;;;20.92;7.53;;;;;;;;;;5016507;28;20175;-61
2022/01/07 01:07:03;;;;;;;15.52;6.00;;;;;;;;;;5016027;28;20181;-60
2022/01/07 01:09:29;;;;;;;25.30;7.45;;;;;;;;;;5016273;28;20174;-60
2022/01/07 01:11:56;;;;;;;16.33;6.47;;;;;;;;;;5016359;28;20201;-59
2022/01/07 01:14:23;;;;;;;17.40;7.30;;;;;;;;;;5016535;28;20573;-59
2022/01/07 01:16:48;;;;;;;17.48;7.32;;;;;;;;;;5016359;28;20166;-59
2022/01/07 01:19:14;;;;;;;20.45;7.47;;;;;;;;;;5016358;28;20166;-60
2022/01/07 01:21:40;;;;;;;19.10;7.85;;;;;;;;;;5016200;28;20618;-59
2022/01/07 01:24:06;;;;;;;18.20;7.32;;;;;;;;;;5016320;28;20174;-59
2022/01/07 01:26:32;;;;;;;20.25;8.20;;;;;;;;;;5015664;28;20177;-60
2022/01/07 01:28:58;;;;;;;21.27;8.52;;;;;;;;;;5015795;28;20241;-59
2022/01/07 01:31:24;;;;;;;18.60;8.82;;;;;;;;;;5015632;28;20197;-60
2022/01/07 01:33:50;;;;;;;17.15;8.95;;;;;;;;;;5015902;28;20198;-60
2022/01/07 01:36:16;;;;;;;28.42;9.93;;;;;;;;;;5015978;28;20190;-57
2022/01/07 01:38:42;;;;;;;20.10;9.15;;;;;;;;;;5015623;28;20166;-60
2022/01/07 01:41:08;;;;;;;17.63;8.65;;;;;;;;;;5016139;28;20531;-58
2022/01/07 01:43:34;;;;;;;23.42;9.63;;;;;;;;;;5015867;28;20198;-60
2022/01/07 01:46:00;;;;;;;18.42;9.55;;;;;;;;;;5015758;28;20237;-59
2022/01/07 01:48:26;;;;;;;27.95;10.82;;;;;;;;;;5027579;28;20170;-60
2022/01/07 01:50:54;;;;;;;20.05;10.15;;;;;;;;;;5030881;28;20235;-60
2022/01/07 01:53:20;;;;;;;21.15;10.43;;;;;;;;;;5031996;28;20242;-59
2022/01/07 01:55:46;;;;;;;21.85;10.40;;;;;;;;;;5031785;28;20235;-59
2022/01/07 01:58:12;;;;;;;28.20;11.00;;;;;;;;;;5031579;28;20190;-59
2022/01/07 02:00:38;;;;;;;24.85;10.50;;;;;;;;;;5032700;28;20222;-59
2022/01/07 02:03:05;;;;;;;22.17;10.57;;;;;;;;;;5032738;28;20175;-59
2022/01/07 02:05:31;;;;;;;26.15;11.10;;;;;;;;;;5032433;28;20170;-59
2022/01/07 02:07:57;;;;;;;25.08;12.05;;;;;;;;;;5035569;28;20168;-59
2022/01/07 02:10:23;;;;;;;28.73;11.07;;;;;;;;;;5038072;28;20155;-60
2022/01/07 02:12:49;;;;;;;31.17;11.85;;;;;;;;;;5038122;28;20193;-60
2022/01/07 02:15:16;;;;;;;25.63;12.27;;;;;;;;;;5038087;28;20178;-60
2022/01/07 02:17:43;;;;;;;24.45;11.23;;;;;;;;;;5037489;28;20230;-60
2022/01/07 02:20:09;;;;;;;30.02;11.20;;;;;;;;;;5015983;28;20623;-60
2022/01/07 02:22:35;;;;;;;24.52;11.55;;;;;;;;;;5015108;28;20170;-60
2022/01/07 02:25:01;;;;;;;25.17;11.80;;;;;;;;;;5014922;28;20158;-60
2022/01/07 02:27:27;;;;;;;27.73;11.50;;;;;;;;;;5014688;28;20166;-58
2022/01/07 02:29:54;;;;;;;31.08;11.90;;;;;;;;;;5014754;28;20525;-60
2022/01/07 02:32:21;;;;;;;21.25;10.90;;;;;;;;;;5014947;28;20170;-59
2022/01/07 02:34:47;;;;;;;25.50;11.55;;;;;;;;;;5015082;28;20582;-59
2022/01/07 02:37:13;;;;;;;24.88;11.48;;;;;;;;;;5014670;28;20600;-59
2022/01/07 02:39:39;;;;;;;31.15;11.45;;;;;;;;;;5014596;28;20198;-59
2022/01/07 02:42:06;;;;;;;29.77;12.13;;;;;;;;;;5014643;28;20177;-61
2022/01/07 02:44:32;;;;;;;26.85;11.60;;;;;;;;;;5015182;28;20166;-58
2022/01/07 02:46:59;;;;;;;31.23;11.43;;;;;;;;;;5014309;28;20163;-60
2022/01/07 02:49:25;;;;;;;27.58;11.82;;;;;;;;;;5014862;28;20176;-58
2022/01/07 02:51:50;;;;;;;29.45;12.10;;;;;;;;;;5014579;28;20261;-58
2022/01/07 02:54:16;;;;;;;26.50;11.95;;;;;;;;;;5014134;28;20214;-60
2022/01/07 02:56:42;;;;;;;30.83;12.93;;;;;;;;;;5014377;28;20205;-59
2022/01/07 02:59:09;;;;;;;27.98;11.23;;;;;;;;;;5014089;28;20530;-60
2022/01/07 03:01:36;;;;;;;27.55;12.10;;;;;;;;;;5014048;28;20642;-59
2022/01/07 03:04:02;;;;;;;23.05;11.38;;;;;;;;;;5014114;28;20173;-59
2022/01/07 03:06:28;;;;;;;31.13;11.90;;;;;;;;;;5014310;28;20191;-60
2022/01/07 03:08:54;;;;;;;27.70;11.93;;;;;;;;;;5014059;28;20593;-59
2022/01/07 03:11:21;;;;;;;30.92;11.73;;;;;;;;;;5013990;28;20170;-59
2022/01/07 03:13:46;;;;;;;28.25;11.98;;;;;;;;;;5014076;28;20208;-59
2022/01/07 03:16:12;;;;;;;21.08;9.98;;;;;;;;;;5014134;28;20261;-59
2022/01/07 03:18:39;;;;;;;28.08;11.55;;;;;;;;;;5014082;28;20266;-60
2022/01/07 03:21:05;;;;;;;26.27;11.48;;;;;;;;;;5013959;28;20610;-58
2022/01/07 03:23:31;;;;;;;25.52;11.63;;;;;;;;;;5014183;28;20170;-59
2022/01/07 03:25:57;;;;;;;21.25;10.27;;;;;;;;;;5013883;28;20170;-60
2022/01/07 03:28:23;;;;;;;26.88;11.57;;;;;;;;;;5013662;28;20308;-60
2022/01/07 03:30:49;;;;;;;27.35;11.00;;;;;;;;;;5013965;28;20260;-60
2022/01/07 03:33:15;;;;;;;24.10;11.48;;;;;;;;;;5013927;28;20502;-60
2022/01/07 03:35:41;;;;;;;25.42;11.18;;;;;;;;;;5014054;28;20550;-60
2022/01/07 03:38:08;;;;;;;23.67;10.80;;;;;;;;;;5013736;28;20162;-60
2022/01/07 03:40:34;;;;;;;24.38;11.13;;;;;;;;;;5013905;28;20185;-60
2022/01/07 03:43:00;;;;;;;28.33;11.20;;;;;;;;;;5013666;28;20602;-60
2022/01/07 03:45:26;;;;;;;27.67;10.60;;;;;;;;;;5013830;28;20170;-60
2022/01/07 03:47:53;;;;;;;25.40;10.80;;;;;;;;;;5013845;28;20624;-60
2022/01/07 03:50:20;;;;;;;22.63;9.85;;;;;;;;;;5014029;28;20159;-60
2022/01/07 03:52:46;;;;;;;27.52;9.55;;;;;;;;;;5013640;28;20182;-60
2022/01/07 03:55:13;;;;;;;23.60;10.80;;;;;;;;;;5013725;28;20253;-60
2022/01/07 03:57:40;;;;;;;19.52;10.18;;;;;;;;;;5013471;28;20229;-60
2022/01/07 04:00:07;;;;;;;28.00;10.63;;;;;;;;;;5013512;28;20613;-60
2022/01/07 04:02:33;;;;;;;21.10;9.52;;;;;;;;;;5013542;28;20167;-60
2022/01/07 04:04:59;;;;;;;22.98;9.68;;;;;;;;;;5013410;28;20258;-60
2022/01/07 04:07:25;;;;;;;19.73;9.23;;;;;;;;;;5013513;28;20529;-60
2022/01/07 04:09:50;;;;;;;22.80;9.07;;;;;;;;;;5014579;28;20182;-60
2022/01/07 04:12:16;;;;;;;23.80;9.52;;;;;;;;;;5017242;28;20170;-60
2022/01/07 04:14:42;;;;;;;25.15;9.35;;;;;;;;;;5017076;28;20236;-60
2022/01/07 04:17:08;;;;;;;23.33;8.95;;;;;;;;;;5017186;28;20273;-60
2022/01/07 04:19:34;;;;;;;19.88;7.82;;;;;;;;;;5017216;28;20194;-57
2022/01/07 04:22:00;;;;;;;25.70;9.30;;;;;;;;;;5017107;28;20178;-60
2022/01/07 04:24:26;;;;;;;14.60;7.63;;;;;;;;;;5017354;28;20220;-60
2022/01/07 04:26:52;;;;;;;20.00;8.23;;;;;;;;;;5016994;28;20610;-59
2022/01/07 04:29:18;;;;;;;20.13;8.25;;;;;;;;;;5016901;28;20181;-59
2022/01/07 04:31:44;;;;;;;21.92;9.25;;;;;;;;;;5016832;28;20170;-61
2022/01/07 04:34:10;;;;;;;16.77;7.35;;;;;;;;;;5016782;28;20664;-60
2022/01/07 04:36:37;;;;;;;20.25;8.43;;;;;;;;;;5016926;28;20170;-59
2022/01/07 04:39:03;;;;;;;19.05;7.85;;;;;;;;;;5016782;28;20162;-60
2022/01/07 04:41:29;;;;;;;18.88;7.93;;;;;;;;;;5016665;28;20167;-60
2022/01/07 04:43:55;;;;;;;17.40;7.07;;;;;;;;;;5016715;28;20657;-60
2022/01/07 04:46:21;;;;;;;16.63;7.93;;;;;;;;;;5016753;28;20476;-60
2022/01/07 04:48:46;;;;;;;18.50;7.70;;;;;;;;;;5016908;28;20174;-60
2022/01/07 04:51:12;;;;;;;14.10;7.07;;;;;;;;;;5016804;28;20185;-60
2022/01/07 04:53:38;;;;;;;25.38;7.07;;;;;;;;;;5016466;28;20237;-59
2022/01/07 04:56:04;;;;;;;14.65;6.72;;;;;;;;;;5016639;28;20194;-60
2022/01/07 04:58:30;;;;;;;17.65;6.90;;;;;;;;;;5016937;28;20170;-59
2022/01/07 05:00:56;;;;;;;21.10;6.80;;;;;;;;;;5016819;28;20189;-59
2022/01/07 05:03:22;;;;;;;14.52;6.28;;;;;;;;;;5016584;28;20569;-59
2022/01/07 05:05:56;;;;;;;16.58;6.80;;;;;;;;;;5016793;28;20188;-59
2022/01/07 05:08:23;;;;;;;14.50;5.90;;;;;;;;;;5016623;28;20165;-59
2022/01/07 05:10:49;;;;;;;15.45;6.20;;;;;;;;;;5016629;28;20170;-60
2022/01/07 05:13:15;;;;;;;14.57;5.75;;;;;;;;;;5016380;28;20280;-59
2022/01/07 05:15:40;;;;;;;19.52;7.18;;;;;;;;;;5016073;28;20304;-59
2022/01/07 05:18:06;;;;;;;14.82;6.03;;;;;;;;;;5016021;28;20637;-59
2022/01/07 05:20:32;;;;;;;20.30;6.32;;;;;;;;;;5016293;28;20169;-59
2022/01/07 05:22:58;;;;;;;13.60;5.57;;;;;;;;;;5016448;28;20202;-59
2022/01/07 05:25:25;;;;;;;17.73;5.72;;;;;;;;;;5016193;28;20245;-60
2022/01/07 05:27:51;;;;;;;16.80;5.60;;;;;;;;;;5015890;28;20162;-59
2022/01/07 05:30:18;;;;;;;13.18;5.32;;;;;;;;;;5030977;28;20177;-60
2022/01/07 05:32:44;;;;;;;13.65;5.68;;;;;;;;;;5031883;28;20188;-60
2022/01/07 05:35:10;;;;;;;14.43;5.20;;;;;;;;;;5031368;28;20377;-60
2022/01/07 05:37:36;;;;;;;12.57;5.38;;;;;;;;;;5016343;28;20185;-59
2022/01/07 05:40:03;;;;;;;21.40;5.68;;;;;;;;;;5016485;28;20170;-60
2022/01/07 05:42:29;;;;;;;14.23;5.65;;;;;;;;;;5016828;28;20197;-60
2022/01/07 05:44:56;;;;;;;14.02;5.32;;;;;;;;;;5016707;28;20167;-59
2022/01/07 05:47:22;;;;;;;13.75;5.05;;;;;;;;;;5016578;28;20524;-59
2022/01/07 05:49:49;;;;;;;16.27;5.15;;;;;;;;;;5016588;28;20496;-60
2022/01/07 05:52:15;;;;;;;11.07;4.90;;;;;;;;;;5016553;28;20225;-60
2022/01/07 05:54:41;;;;;;;10.13;5.50;;;;;;;;;;5020415;28;20504;-61
2022/01/07 05:57:07;;;;;;;15.60;5.13;;;;;;;;;;5022684;28;20174;-60
2022/01/07 05:59:33;;;;;;;12.52;4.85;;;;;;;;;;5021323;28;20177;-61
2022/01/07 06:01:59;;;;;;;13.60;4.88;;;;;;;;;;5022527;28;20162;-60
2022/01/07 06:04:25;;;;;;;10.68;4.82;;;;;;;;;;5022304;28;20476;-61
2022/01/07 06:06:51;;;;;;;12.90;4.43;;;;;;;;;;5022331;28;20237;-60
2022/01/07 06:09:17;;;;;;;7.45;4.05;;;;;;;;;;5033949;28;20166;-60
2022/01/07 06:11:44;;;;;;;9.30;4.68;;;;;;;;;;5035204;28;20166;-61
2022/01/07 06:14:09;;;;;;;9.05;4.25;;;;;;;;;;5018287;28;20254;-60
2022/01/07 06:16:36;;;;;;;10.48;4.93;;;;;;;;;;5034492;28;20177;-61
2022/01/07 06:19:02;;;;;;;10.25;4.50;;;;;;;;;;5034487;28;20162;-60
2022/01/07 06:21:30;;;;;;;6.55;4.20;;;;;;;;;;5033908;28;20168;-61
2022/01/07 06:23:56;;;;;;;9.57;4.30;;;;;;;;;;5031772;28;20233;-60
2022/01/07 06:26:21;;;;;;;9.18;4.35;;;;;;;;;;5016198;28;20212;-61
2022/01/07 06:28:47;;;;;;;9.73;4.25;;;;;;;;;;5014792;28;20586;-60
2022/01/07 06:31:13;;;;;;;8.02;3.90;;;;;;;;;;5014963;28;20309;-60
2022/01/07 06:33:39;;;;;;;7.25;3.40;;;;;;;;;;5014174;28;20198;-60
2022/01/07 06:36:05;;;;;;;12.20;4.53;;;;;;;;;;5014914;28;20159;-59
2022/01/07 06:38:31;;;;;;;7.32;3.92;;;;;;;;;;5014846;28;20170;-59
2022/01/07 06:40:57;;;;;;;12.85;4.15;;;;;;;;;;5014660;28;20598;-59
2022/01/07 06:43:23;;;;;;;9.48;3.78;;;;;;;;;;5014434;28;20185;-60
2022/01/07 06:45:49;;;;;;;8.23;3.60;;;;;;;;;;5014680;28;20174;-60
2022/01/07 06:48:15;;;;;;;8.75;4.03;;;;;;;;;;5014680;28;20209;-59
2022/01/07 06:50:41;;;;;;;10.60;4.70;;;;;;;;;;5014667;28;20609;-60
2022/01/07 06:53:07;;;;;;;13.02;3.58;;;;;;;;;;4996767;28;20194;-60
2022/01/07 06:55:33;;;;;;;10.82;4.15;;;;;;;;;;5020470;28;20168;-60
2022/01/07 06:57:59;;;;;;;11.15;3.97;;;;;;;;;;5017019;28;20170;-60
2022/01/07 07:00:25;;;;;;;7.00;3.20;;;;;;;;;;5013241;28;20170;-60
2022/01/07 07:02:51;;;;;;;11.43;4.00;;;;;;;;;;5013873;28;20235;-60
2022/01/07 07:05:17;;;;;;;11.63;3.50;;;;;;;;;;5013953;28;20170;-60
2022/01/07 07:07:43;;;;;;;12.02;4.18;;;;;;;;;;5013926;28;20237;-60
2022/01/07 07:10:09;;;;;;;10.13;3.33;;;;;;;;;;5013664;28;20601;-59
2022/01/07 07:12:35;;;;;;;9.02;3.03;;;;;;;;;;5013743;28;20522;-60
2022/01/07 07:15:01;;;;;;;11.15;4.03;;;;;;;;;;5013185;28;20201;-61
2022/01/07 07:17:27;;;;;;;10.90;3.60;;;;;;;;;;5013471;28;20494;-60
2022/01/07 07:19:53;;;;;;;11.93;3.67;;;;;;;;;;5013260;28;20177;-60
2022/01/07 07:22:19;;;;;;;8.52;3.55;;;;;;;;;;5013555;28;20162;-60
2022/01/07 07:24:45;;;;;;;6.95;3.05;;;;;;;;;;5013333;28;20173;-61
2022/01/07 07:27:11;;;;;;;14.05;3.50;;;;;;;;;;5013712;28;20166;-59
2022/01/07 07:29:37;;;;;;;8.00;3.53;;;;;;;;;;5013362;28;20224;-61
2022/01/07 07:32:09;;;;;;;9.45;3.13;;;;;;;;;;5013196;28;20166;-60
2022/01/07 07:37:19;;;;;;;13.18;3.17;;;;;;;;;;5013306;28;20189;-60
2022/01/07 07:39:45;;;;;;;7.05;3.53;;;;;;;;;;5012938;28;20190;-60
2022/01/07 07:42:11;;;;;;;11.73;3.33;;;;;;;;;;5013060;28;20509;-60
2022/01/07 07:44:37;;;;;;;11.95;4.13;;;;;;;;;;5013592;28;20170;-60
2022/01/07 07:47:03;;;;;;;9.68;3.40;;;;;;;;;;5016560;28;20216;-59
2022/01/07 07:49:29;;;;;;;11.52;3.97;;;;;;;;;;5016550;28;20248;-59
2022/01/07 07:51:55;;;;;;;8.30;3.58;;;;;;;;;;5016614;28;20208;-59
2022/01/07 07:54:21;;;;;;;4.82;3.00;;;;;;;;;;4977313;28;1160810;-59
2022/01/07 07:56:47;;;;;;;7.18;3.38;;;;;;;;;;5017770;28;20170;-60
2022/01/07 07:59:13;;;;;;;11.15;3.33;;;;;;;;;;5017917;28;20177;-61
2022/01/07 08:01:39;;;;;;;9.50;3.55;;;;;;;;;;5017904;28;20166;-60
2022/01/07 08:04:05;;;;;;;7.78;3.47;;;;;;;;;;5018039;28;20162;-60
2022/01/07 08:06:31;;;;;;;7.07;3.17;;;;;;;;;;5017842;28;20174;-61
2022/01/07 08:08:57;;;;;;;6.32;3.45;;;;;;;;;;5017899;28;20193;-58
2022/01/07 08:11:27;;;;;;;7.63;3.35;;;;;;;;;;5017734;28;20197;-60
2022/01/07 08:16:37;;;;;;;10.35;3.83;;;;;;;;;;5017838;28;20212;-61
2022/01/07 08:19:04;;;;;;;8.52;3.15;;;;;;;;;;5017475;28;20162;-60
2022/01/07 08:21:30;;;;;;;4.95;3.00;;;;;;;;;;5017623;28;20273;-60
2022/01/07 08:23:56;;;;;;;7.80;3.97;;;;;;;;;;5017404;28;20260;-60
2022/01/07 08:26:23;;;;;;;9.10;3.70;;;;;;;;;;5017866;28;20204;-61
2022/01/07 08:28:56;;;;;;;7.70;3.55;;;;;;;;;;5017882;28;20174;-60
2022/01/07 08:34:53;;;;;;;7.68;3.33;;;;;;;;;;5017734;28;20165;-59
2022/01/07 08:36:56;;;;;;;9.10;3.78;;;;;;;;;;5017995;28;20205;-59
2022/01/07 08:39:23;;;;;;;8.18;3.63;;;;;;;;;;5017921;28;20170;-59
2022/01/07 08:41:49;;;;;;;9.20;3.38;;;;;;;;;;5018163;28;20171;-60
2022/01/07 08:44:15;;;;;;;7.88;3.20;;;;;;;;;;5018030;28;20176;-57
2022/01/07 08:46:43;;;;;;;9.63;3.70;;;;;;;;;;5017772;28;20275;-58
2022/01/07 08:49:09;;;;;;;9.35;3.17;;;;;;;;;;5017739;28;20177;-59
2022/01/07 08:51:35;;;;;;;8.23;3.42;;;;;;;;;;5017664;28;20220;-60
2022/01/07 08:54:01;;;;;;;8.07;3.47;;;;;;;;;;5017256;28;20222;-60
2022/01/07 08:56:27;;;;;;;8.75;3.88;;;;;;;;;;5016640;28;20166;-59
2022/01/07 08:58:53;;;;;;;8.00;3.92;;;;;;;;;;5017308;28;20177;-59
2022/01/07 09:01:20;;;;;;;9.40;3.60;;;;;;;;;;5016828;28;20250;-58
2022/01/07 09:03:46;;;;;;;10.27;3.63;;;;;;;;;;5016444;28;20237;-59
2022/01/07 09:06:12;;;;;;;8.30;3.88;;;;;;;;;;5017071;28;20181;-59
2022/01/07 09:08:38;;;;;;;8.85;3.65;;;;;;;;;;5017467;28;20174;-59
2022/01/07 09:11:04;;;;;;;7.22;3.03;;;;;;;;;;5018089;28;20183;-57
2022/01/07 09:13:30;;;;;;;9.20;3.47;;;;;;;;;;5021598;28;20186;-59
2022/01/07 09:15:56;;;;;;;7.93;3.88;;;;;;;;;;5026599;28;20171;-59
2022/01/07 09:18:22;;;;;;;7.68;3.78;;;;;;;;;;5026558;28;20177;-61
2022/01/07 09:20:48;;;;;;;8.68;3.80;;;;;;;;;;5029222;28;20162;-59
2022/01/07 09:23:15;;;;;;;6.38;3.17;;;;;;;;;;5025697;28;20564;-61
2022/01/07 09:25:41;;;;;;;7.57;3.42;;;;;;;;;;5020349;28;20262;-60
2022/01/07 09:28:08;;;;;;;6.22;3.65;;;;;;;;;;5025426;28;20170;-61
2022/01/07 09:30:34;;;;;;;6.28;3.20;;;;;;;;;;5025781;28;20301;-61
2022/01/07 09:33:00;;;;;;;10.05;3.97;;;;;;;;;;5032797;28;20273;-60
2022/01/07 09:35:26;;;;;;;7.25;3.03;;;;;;;;;;5035849;28;20174;-60
2022/01/07 09:37:52;;;;;;;8.57;4.05;;;;;;;;;;5034909;28;20162;-60
2022/01/07 09:40:19;;;;;;;10.05;4.13;;;;;;;;;;5036411;28;20193;-59
2022/01/07 09:43:01;;;;;;;7.63;3.65;;;;;;;;;;5034803;28;20154;-60
2022/01/07 09:45:28;;;;;;;7.30;3.50;;;;;;;;;;5016531;28;20608;-60
2022/01/07 09:47:54;;;;;;;7.28;4.05;;;;;;;;;;5015524;28;20173;-60
2022/01/07 09:50:21;;;;;;;8.65;3.40;;;;;;;;;;5015659;28;20249;-60
2022/01/07 09:52:47;;;;;;;8.13;3.75;;;;;;;;;;5015662;28;20186;-59
2022/01/07 09:55:13;;;;;;;7.53;4.32;;;;;;;;;;5015409;28;20610;-60
2022/01/07 09:57:39;;;;;;;11.48;3.70;;;;;;;;;;5015599;28;20170;-59
2022/01/07 10:00:06;;;;;;;10.57;4.55;;;;;;;;;;5015535;28;20162;-59
2022/01/07 10:02:32;;;;;;;11.98;3.78;;;;;;;;;;5015614;28;20178;-59
2022/01/07 10:04:58;;;;;;;9.65;4.38;;;;;;;;;;5015609;28;20170;-58
2022/01/07 10:07:25;;;;;;;8.95;3.85;;;;;;;;;;5014711;28;20166;-59
2022/01/07 10:09:57;;;;;;;7.15;3.88;;;;;;;;;;5015329;28;20173;-60
2022/01/07 10:12:23;;;;;;;8.55;4.35;;;;;;;;;;5015673;28;20170;-59
2022/01/07 10:15:08;;;;;;;7.07;4.10;;;;;;;;;;5015045;28;20194;-59
2022/01/07 10:17:34;;;;;;;9.18;4.15;;;;;;;;;;5015284;28;20177;-59
2022/01/07 10:20:00;;;;;;;8.77;4.00;;;;;;;;;;5015058;28;20166;-59
2022/01/07 10:22:27;;;;;;;7.07;4.10;;;;;;;;;;5015115;28;20166;-58
2022/01/07 10:24:59;;;;;;;8.32;4.50;;;;;;;;;;5015027;28;20171;-58
2022/01/07 10:27:26;;;;;;;9.13;4.53;;;;;;;;;;4997679;28;20186;-60
2022/01/07 10:29:52;;;;;;;7.45;4.03;;;;;;;;;;5014980;28;20166;-57
2022/01/07 10:32:19;;;;;;;8.18;4.32;;;;;;;;;;5015119;28;20170;-58
2022/01/07 10:35:01;;;;;;;10.73;4.22;;;;;;;;;;5014880;28;20601;-59
2022/01/07 10:37:27;;;;;;;7.88;4.50;;;;;;;;;;5014745;28;20166;-58
2022/01/07 10:39:53;;;;;;;10.48;5.80;;;;;;;;;;5015028;28;20177;-58
2022/01/07 10:42:26;;;;;;;8.70;5.25;;;;;;;;;;5014865;28;20560;-59
2022/01/07 10:44:59;;;;;;;8.15;4.57;;;;;;;;;;5014796;28;20782;-58
2022/01/07 10:47:25;;;;;;;7.72;4.50;;;;;;;;;;5014410;28;20630;-59
2022/01/07 10:49:51;;;;;;;7.75;4.30;;;;;;;;;;5014681;28;20178;-58
2022/01/07 10:52:23;;;;;;;8.30;5.07;;;;;;;;;;5014087;28;20510;-59
2022/01/07 10:55:28;;;;;;;7.47;4.18;;;;;;;;;;5014399;28;20217;-58
2022/01/07 10:57:54;;;;;;;7.50;4.20;;;;;;;;;;4954271;29;20281;-58
2022/01/07 11:00:21;;;;;;;7.47;4.20;;;;;;;;;;4954607;29;20247;-58
2022/01/07 11:02:47;;;;;;;7.85;4.35;;;;;;;;;;4953757;29;20616;-58
2022/01/07 11:05:14;;;;;;;6.53;4.18;;;;;;;;;;4954238;29;20184;-59
2022/01/07 11:07:40;;;;;;;7.47;4.80;;;;;;;;;;4953905;29;20189;-59
2022/01/07 11:10:07;;;;;;;6.38;4.07;;;;;;;;;;4953893;29;20623;-59
2022/01/07 11:12:34;;;;;;;7.25;4.03;;;;;;;;;;4953632;29;20172;-59
2022/01/07 11:15:00;;;;;;;6.85;4.30;;;;;;;;;;4953998;29;20207;-56
2022/01/07 11:17:27;;;;;;;10.13;5.18;;;;;;;;;;4953979;29;20168;-59
2022/01/07 11:19:56;;;;;;;5.13;4.30;;;;;;;;;;4953854;28;20249;-58
2022/01/07 11:22:24;;;;;;;6.60;4.70;;;;;;;;;;4953357;29;20180;-59
2022/01/07 11:24:54;;;;;;;7.43;4.60;;;;;;;;;;4953915;28;20190;-59
2022/01/07 11:27:22;;;;;;;6.15;4.55;;;;;;;;;;4953933;29;20252;-56
2022/01/07 11:29:55;;;;;;;6.20;4.35;;;;;;;;;;5013379;28;20182;-59
2022/01/07 11:32:26;;;;;;;6.97;4.53;;;;;;;;;;5014089;28;20336;-59
2022/01/07 11:34:53;;;;;;;7.97;4.93;;;;;;;;;;5014618;28;20202;-58
2022/01/07 11:37:38;;;;;;;9.88;5.53;;;;;;;;;;5014111;28;20166;-59
2022/01/07 11:40:05;;;;;;;9.02;4.60;;;;;;;;;;5014346;28;20264;-59
2022/01/07 11:42:39;;;;;;;6.55;4.82;;;;;;;;;;5013818;28;20189;-59
2022/01/07 11:45:26;;;;;;;6.03;4.70;;;;;;;;;;5013852;28;20550;-59
2022/01/07 11:47:52;;;;;;;7.88;4.90;;;;;;;;;;5013802;28;20657;-59
2022/01/07 11:50:18;;;;;;;7.80;4.93;;;;;;;;;;5013701;28;20253;-59
2022/01/07 11:52:55;;;;;;;8.07;4.32;;;;;;;;;;5013653;28;20212;-59
2022/01/07 11:55:31;;;;;;;5.85;4.65;;;;;;;;;;5013702;28;20645;-59
2022/01/07 11:58:01;;;;;;;5.72;4.50;;;;;;;;;;5013742;28;20220;-59
2022/01/07 12:00:45;;;;;;;6.45;5.07;;;;;;;;;;5013678;28;20161;-59
2022/01/07 12:03:11;;;;;;;6.38;4.95;;;;;;;;;;5013288;28;20204;-59
2022/01/07 12:05:37;;;;;;;6.78;4.40;;;;;;;;;;5013314;28;20198;-59
2022/01/07 12:08:03;;;;;;;6.25;4.80;;;;;;;;;;5013325;28;20167;-59
2022/01/07 12:10:29;;;;;;;6.68;4.53;;;;;;;;;;5013613;28;20594;-59
2022/01/07 12:13:00;;;;;;;6.82;4.50;;;;;;;;;;5013817;28;20237;-58
2022/01/07 12:15:26;;;;;;;7.15;4.55;;;;;;;;;;5013391;28;20194;-57
2022/01/07 12:17:51;;;;;;;7.30;4.32;;;;;;;;;;5013166;28;20261;-57
2022/01/07 12:20:36;;;;;;;7.65;4.78;;;;;;;;;;5013596;28;20174;-59
2022/01/07 12:23:02;;;;;;;7.50;5.10;;;;;;;;;;5013519;28;20171;-58
2022/01/07 12:25:28;;;;;;;6.10;4.50;;;;;;;;;;5013618;28;20159;-58
2022/01/07 12:28:01;;;;;;;5.25;4.30;;;;;;;;;;5013450;28;20175;-59
2022/01/07 12:30:27;;;;;;;5.25;4.68;;;;;;;;;;5013761;28;20177;-60
2022/01/07 12:32:58;;;;;;;6.30;4.93;;;;;;;;;;5017411;28;20269;-59
2022/01/07 12:35:28;;;;;;;6.32;4.65;;;;;;;;;;5017125;28;20198;-58
2022/01/07 12:37:54;;;;;;;7.05;4.68;;;;;;;;;;5016999;28;20185;-57
2022/01/07 12:40:20;;;;;;;6.03;4.65;;;;;;;;;;5016991;28;20198;-59
2022/01/07 12:42:46;;;;;;;6.18;4.55;;;;;;;;;;5016909;28;20180;-59
2022/01/07 12:45:13;;;;;;;6.18;4.72;;;;;;;;;;5016915;28;20170;-58
2022/01/07 12:47:39;;;;;;;6.18;4.70;;;;;;;;;;5016904;28;20174;-58
2022/01/07 12:50:05;;;;;;;7.60;4.78;;;;;;;;;;5016898;28;20173;-59
2022/01/07 12:52:41;;;;;;;8.27;5.38;;;;;;;;;;5016677;28;20209;-57
2022/01/07 12:55:07;;;;;;;5.88;4.28;;;;;;;;;;5016986;28;20193;-59
2022/01/07 12:57:33;;;;;;;8.00;5.22;;;;;;;;;;5016519;28;20268;-60
2022/01/07 13:00:04;;;;;;;10.00;5.28;;;;;;;;;;5016862;28;20162;-59
2022/01/07 13:02:31;;;;;;;5.88;4.72;;;;;;;;;;5016824;28;20560;-60
2022/01/07 13:05:18;;;;;;;6.43;4.80;;;;;;;;;;5016705;28;20162;-59
2022/01/07 13:07:46;;;;;;;6.18;5.03;;;;;;;;;;5016447;28;20173;-60
2022/01/07 13:10:16;;;;;;;6.20;4.60;;;;;;;;;;5016314;28;20232;-59
2022/01/07 13:12:51;;;;;;;5.30;4.65;;;;;;;;;;5016772;28;20479;-59
2022/01/07 13:15:17;;;;;;;6.07;4.53;;;;;;;;;;5016334;28;20197;-58
2022/01/07 13:17:45;;;;;;;6.28;4.68;;;;;;;;;;5016261;28;20170;-59
2022/01/07 13:20:11;;;;;;;6.47;4.50;;;;;;;;;;5016472;28;20579;-59
2022/01/07 13:22:38;;;;;;;6.68;4.78;;;;;;;;;;5016783;28;20269;-59
2022/01/07 13:25:04;;;;;;;6.38;4.60;;;;;;;;;;5016145;28;20176;-60
2022/01/07 13:27:30;;;;;;;6.28;4.80;;;;;;;;;;5016446;28;20250;-58
2022/01/07 13:29:56;;;;;;;6.95;4.70;;;;;;;;;;5015797;28;20536;-59
2022/01/07 13:32:26;;;;;;;7.50;4.78;;;;;;;;;;5015606;28;20513;-56
2022/01/07 13:34:52;;;;;;;6.30;4.47;;;;;;;;;;5015454;28;20757;-59
2022/01/07 13:37:19;;;;;;;6.22;4.75;;;;;;;;;;5015930;28;20182;-59
2022/01/07 13:39:47;;;;;;;6.97;4.70;;;;;;;;;;5015478;28;20166;-59
2022/01/07 13:42:18;;;;;;;7.28;4.70;;;;;;;;;;5014181;28;20217;-59
2022/01/07 13:44:49;;;;;;;5.32;4.75;;;;;;;;;;5015579;28;20273;-59
2022/01/07 13:47:23;;;;;;;7.22;4.65;;;;;;;;;;5015759;28;20170;-58
2022/01/07 13:49:49;;;;;;;7.25;4.95;;;;;;;;;;5015589;28;20253;-58
2022/01/07 13:52:25;;;;;;;6.75;4.70;;;;;;;;;;5015441;28;20618;-60
2022/01/07 13:54:51;;;;;;;5.82;4.57;;;;;;;;;;5015567;28;20198;-59
2022/01/07 13:57:18;;;;;;;6.47;4.22;;;;;;;;;;5015273;28;20162;-57
2022/01/07 13:59:51;;;;;;;6.68;4.95;;;;;;;;;;5015616;28;20176;-59
2022/01/07 14:02:18;;;;;;;6.25;4.13;;;;;;;;;;5015696;28;20178;-59
2022/01/07 14:04:46;;;;;;;6.45;4.85;;;;;;;;;;5015315;28;20180;-60
2022/01/07 14:07:22;;;;;;;6.32;4.47;;;;;;;;;;5015221;28;20182;-60
2022/01/07 14:10:06;;;;;;;5.78;4.53;;;;;;;;;;5015101;28;20166;-59
2022/01/07 14:12:32;;;;;;;6.15;4.70;;;;;;;;;;5015146;28;20224;-60
2022/01/07 14:15:03;;;;;;;6.05;4.70;;;;;;;;;;5015222;28;20190;-59
2022/01/07 14:17:30;;;;;;;5.40;4.35;;;;;;;;;;5014933;28;20217;-60
2022/01/07 14:19:56;;;;;;;6.13;4.60;;;;;;;;;;5014756;28;20184;-58
2022/01/07 14:22:23;;;;;;;5.68;4.72;;;;;;;;;;5014874;28;20170;-60
2022/01/07 14:24:48;;;;;;;5.82;4.28;;;;;;;;;;5015240;28;20166;-60
2022/01/07 14:27:44;;;;;;;5.20;4.07;;;;;;;;;;5014879;28;20264;-59
2022/01/07 14:30:14;;;;;;;5.38;4.22;;;;;;;;;;5002032;28;20490;-60
2022/01/07 14:32:40;;;;;;;6.28;4.63;;;;;;;;;;5014896;28;20539;-58
2022/01/07 14:35:08;;;;;;;6.03;4.63;;;;;;;;;;5014432;28;20277;-57
2022/01/07 14:37:34;;;;;;;6.03;4.38;;;;;;;;;;5014710;28;20158;-57
2022/01/07 14:40:00;;;;;;;6.13;4.72;;;;;;;;;;5014366;28;20213;-58
2022/01/07 14:42:26;;;;;;;6.80;4.60;;;;;;;;;;4997122;28;20205;-60